sensor_id;sensor_type;location;lat;lon;timestamp;temperature;humidity
65058;HTU21D;51644;51.068;5.860;2023-02-26T00:00:10;2.05;70.92
65058;HTU21D;51644;51.068;5.860;2023-02-26T00:01:15;2.03;71.04
65058;HTU21D;51644;51.068;5.860;2023-02-26T00:02:14;2.02;71.10
65058;HTU21D;51644;51.068;5.860;2023-02-26T00:03:13;2.00;71.17
65058;HTU21D;51644;51.068;5.860;2023-02-26T00:04:12;1.98;71.32
65058;HTU21D;51644;51.068;5.860;2023-02-26T00:05:11;1.97;71.44
65058;HTU21D;51644;51.068;5.860;2023-02-26T00:06:09;1.95;71.51
65058;HTU21D;51644;51.068;5.860;2023-02-26T00:07:08;1.95;71.57
65058;HTU21D;51644;51.068;5.860;2023-02-26T00:08:07;1.93;71.58
65058;HTU21D;51644;51.068;5.860;2023-02-26T00:09:05;1.93;71.60
65058;HTU21D;51644;51.068;5.860;2023-02-26T00:10:06;1.93;71.58
65058;HTU21D;51644;51.068;5.860;2023-02-26T00:11:06;1.91;71.66
65058;HTU21D;51644;51.068;5.860;2023-02-26T00:12:06;1.91;71.74
65058;HTU21D;51644;51.068;5.860;2023-02-26T00:13:05;1.92;71.77
65058;HTU21D;51644;51.068;5.860;2023-02-26T00:14:05;1.91;71.77
65058;HTU21D;51644;51.068;5.860;2023-02-26T00:15:04;1.88;71.82
65058;HTU21D;51644;51.068;5.860;2023-02-26T00:16:19;1.90;71.91
65058;HTU21D;51644;51.068;5.860;2023-02-26T00:18:44;1.87;71.93
65058;HTU21D;51644;51.068;5.860;2023-02-26T00:19:43;1.86;71.93
65058;HTU21D;51644;51.068;5.860;2023-02-26T00:20:42;1.86;71.95
65058;HTU21D;51644;51.068;5.860;2023-02-26T00:21:41;1.86;72.03
65058;HTU21D;51644;51.068;5.860;2023-02-26T00:22:40;1.86;72.07
65058;HTU21D;51644;51.068;5.860;2023-02-26T00:23:44;1.86;72.16
65058;HTU21D;51644;51.068;5.860;2023-02-26T00:24:43;1.84;72.22
65058;HTU21D;51644;51.068;5.860;2023-02-26T00:25:42;1.86;72.22
65058;HTU21D;51644;51.068;5.860;2023-02-26T00:26:40;1.85;72.28
65058;HTU21D;51644;51.068;5.860;2023-02-26T00:27:39;1.86;72.36
65058;HTU21D;51644;51.068;5.860;2023-02-26T00:28:41;1.87;72.36
65058;HTU21D;51644;51.068;5.860;2023-02-26T00:29:40;1.90;72.31
65058;HTU21D;51644;51.068;5.860;2023-02-26T00:30:42;1.91;72.35
65058;HTU21D;51644;51.068;5.860;2023-02-26T00:31:43;1.93;72.30
65058;HTU21D;51644;51.068;5.860;2023-02-26T00:32:42;1.93;72.34
65058;HTU21D;51644;51.068;5.860;2023-02-26T00:33:45;1.94;72.38
65058;HTU21D;51644;51.068;5.860;2023-02-26T00:34:51;1.94;72.36
65058;HTU21D;51644;51.068;5.860;2023-02-26T00:35:59;1.96;72.25
65058;HTU21D;51644;51.068;5.860;2023-02-26T00:37:37;1.93;72.29
65058;HTU21D;51644;51.068;5.860;2023-02-26T00:38:49;1.90;72.38
65058;HTU21D;51644;51.068;5.860;2023-02-26T00:41:12;1.87;72.51
65058;HTU21D;51644;51.068;5.860;2023-02-26T00:42:16;1.86;72.51
65058;HTU21D;51644;51.068;5.860;2023-02-26T00:43:20;1.85;72.52
65058;HTU21D;51644;51.068;5.860;2023-02-26T00:44:23;1.82;72.62
65058;HTU21D;51644;51.068;5.860;2023-02-26T00:45:24;1.81;72.61
65058;HTU21D;51644;51.068;5.860;2023-02-26T00:47:32;1.77;72.77
65058;HTU21D;51644;51.068;5.860;2023-02-26T00:48:51;1.77;72.87
65058;HTU21D;51644;51.068;5.860;2023-02-26T00:53:03;1.68;73.18
65058;HTU21D;51644;51.068;5.860;2023-02-26T00:54:25;1.67;73.27
65058;HTU21D;51644;51.068;5.860;2023-02-26T00:55:24;1.64;73.36
65058;HTU21D;51644;51.068;5.860;2023-02-26T00:56:36;1.63;73.45
65058;HTU21D;51644;51.068;5.860;2023-02-26T00:57:35;1.63;73.51
65058;HTU21D;51644;51.068;5.860;2023-02-26T00:58:33;1.61;73.59
65058;HTU21D;51644;51.068;5.860;2023-02-26T00:59:33;1.58;73.67
65058;HTU21D;51644;51.068;5.860;2023-02-26T01:00:34;1.57;73.71
65058;HTU21D;51644;51.068;5.860;2023-02-26T01:01:34;1.55;73.77
65058;HTU21D;51644;51.068;5.860;2023-02-26T01:02:34;1.54;73.88
65058;HTU21D;51644;51.068;5.860;2023-02-26T01:03:33;1.53;73.97
65058;HTU21D;51644;51.068;5.860;2023-02-26T01:04:32;1.52;74.04
65058;HTU21D;51644;51.068;5.860;2023-02-26T01:05:30;1.51;74.09
65058;HTU21D;51644;51.068;5.860;2023-02-26T01:06:33;1.51;74.22
65058;HTU21D;51644;51.068;5.860;2023-02-26T01:07:41;1.50;74.28
65058;HTU21D;51644;51.068;5.860;2023-02-26T01:09:53;1.50;74.41
65058;HTU21D;51644;51.068;5.860;2023-02-26T01:10:54;1.51;74.46
65058;HTU21D;51644;51.068;5.860;2023-02-26T01:11:59;1.54;74.52
65058;HTU21D;51644;51.068;5.860;2023-02-26T01:13:01;1.57;74.54
65058;HTU21D;51644;51.068;5.860;2023-02-26T01:14:00;1.61;74.54
65058;HTU21D;51644;51.068;5.860;2023-02-26T01:14:59;1.65;74.45
65058;HTU21D;51644;51.068;5.860;2023-02-26T01:16:04;1.69;74.38
65058;HTU21D;51644;51.068;5.860;2023-02-26T01:18:27;1.81;74.28
65058;HTU21D;51644;51.068;5.860;2023-02-26T01:21:14;1.92;74.16
65058;HTU21D;51644;51.068;5.860;2023-02-26T01:22:32;1.97;74.10
65058;HTU21D;51644;51.068;5.860;2023-02-26T01:23:39;2.02;73.99
65058;HTU21D;51644;51.068;5.860;2023-02-26T01:24:39;2.07;73.84
65058;HTU21D;51644;51.068;5.860;2023-02-26T01:25:50;2.11;73.71
65058;HTU21D;51644;51.068;5.860;2023-02-26T01:26:52;2.14;73.66
65058;HTU21D;51644;51.068;5.860;2023-02-26T01:27:52;2.17;73.60
65058;HTU21D;51644;51.068;5.860;2023-02-26T01:28:52;2.22;73.50
65058;HTU21D;51644;51.068;5.860;2023-02-26T01:29:51;2.24;73.39
65058;HTU21D;51644;51.068;5.860;2023-02-26T01:30:56;2.27;73.32
65058;HTU21D;51644;51.068;5.860;2023-02-26T01:32:14;2.28;73.24
65058;HTU21D;51644;51.068;5.860;2023-02-26T01:33:40;2.29;73.17
65058;HTU21D;51644;51.068;5.860;2023-02-26T01:34:47;2.26;73.18
65058;HTU21D;51644;51.068;5.860;2023-02-26T01:36:19;2.22;73.19
65058;HTU21D;51644;51.068;5.860;2023-02-26T01:37:32;2.19;73.32
65058;HTU21D;51644;51.068;5.860;2023-02-26T01:38:46;2.15;73.48
65058;HTU21D;51644;51.068;5.860;2023-02-26T01:42:31;2.09;73.79
65058;HTU21D;51644;51.068;5.860;2023-02-26T01:43:49;2.08;73.87
65058;HTU21D;51644;51.068;5.860;2023-02-26T01:45:15;2.10;73.80
65058;HTU21D;51644;51.068;5.860;2023-02-26T01:47:50;2.14;73.55
65058;HTU21D;51644;51.068;5.860;2023-02-26T01:48:57;2.14;73.50
65058;HTU21D;51644;51.068;5.860;2023-02-26T01:50:00;2.17;73.48
65058;HTU21D;51644;51.068;5.860;2023-02-26T01:51:04;2.20;73.38
65058;HTU21D;51644;51.068;5.860;2023-02-26T01:52:05;2.21;73.38
65058;HTU21D;51644;51.068;5.860;2023-02-26T01:53:25;2.23;73.28
65058;HTU21D;51644;51.068;5.860;2023-02-26T01:54:35;2.28;73.32
65058;HTU21D;51644;51.068;5.860;2023-02-26T01:55:35;2.30;73.28
65058;HTU21D;51644;51.068;5.860;2023-02-26T01:56:34;2.32;73.27
65058;HTU21D;51644;51.068;5.860;2023-02-26T01:57:33;2.34;73.28
65058;HTU21D;51644;51.068;5.860;2023-02-26T01:58:40;2.37;73.19
65058;HTU21D;51644;51.068;5.860;2023-02-26T01:59:43;2.37;73.20
65058;HTU21D;51644;51.068;5.860;2023-02-26T02:00:43;2.38;73.12
65058;HTU21D;51644;51.068;5.860;2023-02-26T02:01:42;2.39;73.12
65058;HTU21D;51644;51.068;5.860;2023-02-26T02:02:41;2.40;73.12
65058;HTU21D;51644;51.068;5.860;2023-02-26T02:03:41;2.40;73.12
65058;HTU21D;51644;51.068;5.860;2023-02-26T02:04:41;2.41;73.12
65058;HTU21D;51644;51.068;5.860;2023-02-26T02:05:59;2.41;73.14
65058;HTU21D;51644;51.068;5.860;2023-02-26T02:07:04;2.43;73.07
65058;HTU21D;51644;51.068;5.860;2023-02-26T02:08:03;2.43;73.08
65058;HTU21D;51644;51.068;5.860;2023-02-26T02:09:05;2.44;73.03
65058;HTU21D;51644;51.068;5.860;2023-02-26T02:10:06;2.44;72.99
65058;HTU21D;51644;51.068;5.860;2023-02-26T02:11:09;2.46;72.90
65058;HTU21D;51644;51.068;5.860;2023-02-26T02:13:36;2.47;72.74
65058;HTU21D;51644;51.068;5.860;2023-02-26T02:14:52;2.47;72.74
65058;HTU21D;51644;51.068;5.860;2023-02-26T02:18:03;2.50;72.64
65058;HTU21D;51644;51.068;5.860;2023-02-26T02:26:24;2.46;73.03
65058;HTU21D;51644;51.068;5.860;2023-02-26T02:27:51;2.45;73.10
65058;HTU21D;51644;51.068;5.860;2023-02-26T02:29:20;2.45;73.10
65058;HTU21D;51644;51.068;5.860;2023-02-26T02:31:00;2.43;73.06
65058;HTU21D;51644;51.068;5.860;2023-02-26T02:33:25;2.38;73.03
65058;HTU21D;51644;51.068;5.860;2023-02-26T02:34:33;2.37;73.07
65058;HTU21D;51644;51.068;5.860;2023-02-26T02:35:55;2.32;73.12
65058;HTU21D;51644;51.068;5.860;2023-02-26T02:37:56;2.29;73.27
65058;HTU21D;51644;51.068;5.860;2023-02-26T02:38:48;2.21;73.24
65058;HTU21D;51644;51.068;5.860;2023-02-26T02:40:07;2.17;73.25
65058;HTU21D;51644;51.068;5.860;2023-02-26T02:41:13;2.11;73.36
65058;HTU21D;51644;51.068;5.860;2023-02-26T02:43:20;2.00;73.60
65058;HTU21D;51644;51.068;5.860;2023-02-26T02:44:25;1.95;73.74
65058;HTU21D;51644;51.068;5.860;2023-02-26T02:46:40;1.88;73.96
65058;HTU21D;51644;51.068;5.860;2023-02-26T02:47:45;1.81;74.09
65058;HTU21D;51644;51.068;5.860;2023-02-26T02:48:57;1.79;74.15
65058;HTU21D;51644;51.068;5.860;2023-02-26T02:51:35;1.73;74.24
65058;HTU21D;51644;51.068;5.860;2023-02-26T02:52:43;1.70;74.37
65058;HTU21D;51644;51.068;5.860;2023-02-26T02:53:53;1.67;74.41
65058;HTU21D;51644;51.068;5.860;2023-02-26T02:55:11;1.64;74.51
65058;HTU21D;51644;51.068;5.860;2023-02-26T02:56:33;1.62;74.54
65058;HTU21D;51644;51.068;5.860;2023-02-26T02:57:41;1.58;74.58
65058;HTU21D;51644;51.068;5.860;2023-02-26T02:58:59;1.60;74.60
65058;HTU21D;51644;51.068;5.860;2023-02-26T03:00:06;1.57;74.66
65058;HTU21D;51644;51.068;5.860;2023-02-26T03:01:12;1.56;74.60
65058;HTU21D;51644;51.068;5.860;2023-02-26T03:02:35;1.55;74.67
65058;HTU21D;51644;51.068;5.860;2023-02-26T03:04:51;1.53;74.58
65058;HTU21D;51644;51.068;5.860;2023-02-26T03:05:50;1.50;74.64
65058;HTU21D;51644;51.068;5.860;2023-02-26T03:06:48;1.51;74.70
65058;HTU21D;51644;51.068;5.860;2023-02-26T03:07:58;1.48;74.71
65058;HTU21D;51644;51.068;5.860;2023-02-26T03:08:59;1.49;74.75
65058;HTU21D;51644;51.068;5.860;2023-02-26T03:09:58;1.46;74.80
65058;HTU21D;51644;51.068;5.860;2023-02-26T03:10:57;1.42;74.96
65058;HTU21D;51644;51.068;5.860;2023-02-26T03:11:56;1.40;75.07
65058;HTU21D;51644;51.068;5.860;2023-02-26T03:12:55;1.39;75.15
65058;HTU21D;51644;51.068;5.860;2023-02-26T03:13:58;1.38;75.22
65058;HTU21D;51644;51.068;5.860;2023-02-26T03:15:02;1.36;75.21
65058;HTU21D;51644;51.068;5.860;2023-02-26T03:17:32;1.35;75.31
65058;HTU21D;51644;51.068;5.860;2023-02-26T03:18:53;1.36;75.28
65058;HTU21D;51644;51.068;5.860;2023-02-26T03:19:58;1.33;75.38
65058;HTU21D;51644;51.068;5.860;2023-02-26T03:21:09;1.32;75.44
65058;HTU21D;51644;51.068;5.860;2023-02-26T03:25:39;1.27;75.66
65058;HTU21D;51644;51.068;5.860;2023-02-26T03:28:06;1.26;75.78
65058;HTU21D;51644;51.068;5.860;2023-02-26T03:29:11;1.28;75.80
65058;HTU21D;51644;51.068;5.860;2023-02-26T03:32:07;1.27;75.92
65058;HTU21D;51644;51.068;5.860;2023-02-26T03:34:39;1.31;75.95
65058;HTU21D;51644;51.068;5.860;2023-02-26T03:35:49;1.33;75.89
65058;HTU21D;51644;51.068;5.860;2023-02-26T03:37:06;1.35;75.99
65058;HTU21D;51644;51.068;5.860;2023-02-26T03:39:40;1.36;75.84
65058;HTU21D;51644;51.068;5.860;2023-02-26T03:40:48;1.40;75.87
65058;HTU21D;51644;51.068;5.860;2023-02-26T03:42:03;1.39;75.86
65058;HTU21D;51644;51.068;5.860;2023-02-26T03:43:22;1.37;75.84
65058;HTU21D;51644;51.068;5.860;2023-02-26T03:44:34;1.37;75.89
65058;HTU21D;51644;51.068;5.860;2023-02-26T03:45:37;1.35;75.87
65058;HTU21D;51644;51.068;5.860;2023-02-26T03:46:46;1.34;75.93
65058;HTU21D;51644;51.068;5.860;2023-02-26T03:47:50;1.34;76.00
65058;HTU21D;51644;51.068;5.860;2023-02-26T03:48:56;1.32;75.99
65058;HTU21D;51644;51.068;5.860;2023-02-26T03:50:11;1.32;76.01
65058;HTU21D;51644;51.068;5.860;2023-02-26T03:51:26;1.26;76.12
65058;HTU21D;51644;51.068;5.860;2023-02-26T03:52:48;1.27;76.07
65058;HTU21D;51644;51.068;5.860;2023-02-26T03:54:02;1.23;76.18
65058;HTU21D;51644;51.068;5.860;2023-02-26T03:55:19;1.22;76.47
65058;HTU21D;51644;51.068;5.860;2023-02-26T03:56:48;1.20;76.36
65058;HTU21D;51644;51.068;5.860;2023-02-26T03:57:51;1.18;76.46
65058;HTU21D;51644;51.068;5.860;2023-02-26T03:59:07;1.14;76.66
65058;HTU21D;51644;51.068;5.860;2023-02-26T04:00:16;1.12;76.76
65058;HTU21D;51644;51.068;5.860;2023-02-26T04:01:25;1.11;76.82
65058;HTU21D;51644;51.068;5.860;2023-02-26T04:02:32;1.11;76.97
65058;HTU21D;51644;51.068;5.860;2023-02-26T04:04:11;1.07;77.16
65058;HTU21D;51644;51.068;5.860;2023-02-26T04:05:16;1.06;77.15
65058;HTU21D;51644;51.068;5.860;2023-02-26T04:06:17;1.02;77.31
65058;HTU21D;51644;51.068;5.860;2023-02-26T04:07:19;1.02;77.41
65058;HTU21D;51644;51.068;5.860;2023-02-26T04:08:21;1.01;77.40
65058;HTU21D;51644;51.068;5.860;2023-02-26T04:09:21;1.01;77.51
65058;HTU21D;51644;51.068;5.860;2023-02-26T04:10:28;0.98;77.69
65058;HTU21D;51644;51.068;5.860;2023-02-26T04:11:28;0.98;77.66
65058;HTU21D;51644;51.068;5.860;2023-02-26T04:12:28;0.98;77.64
65058;HTU21D;51644;51.068;5.860;2023-02-26T04:13:27;0.95;77.78
65058;HTU21D;51644;51.068;5.860;2023-02-26T04:14:25;0.96;77.86
65058;HTU21D;51644;51.068;5.860;2023-02-26T04:15:25;0.94;77.97
65058;HTU21D;51644;51.068;5.860;2023-02-26T04:16:24;0.97;78.02
65058;HTU21D;51644;51.068;5.860;2023-02-26T04:17:23;0.93;78.06
65058;HTU21D;51644;51.068;5.860;2023-02-26T04:18:22;0.95;78.10
65058;HTU21D;51644;51.068;5.860;2023-02-26T04:19:21;0.92;78.09
65058;HTU21D;51644;51.068;5.860;2023-02-26T04:20:20;0.92;78.12
65058;HTU21D;51644;51.068;5.860;2023-02-26T04:21:21;0.91;78.19
65058;HTU21D;51644;51.068;5.860;2023-02-26T04:22:20;0.91;78.21
65058;HTU21D;51644;51.068;5.860;2023-02-26T04:23:19;0.91;78.27
65058;HTU21D;51644;51.068;5.860;2023-02-26T04:24:18;0.89;78.28
65058;HTU21D;51644;51.068;5.860;2023-02-26T04:25:17;0.89;78.40
65058;HTU21D;51644;51.068;5.860;2023-02-26T04:26:15;0.88;78.36
65058;HTU21D;51644;51.068;5.860;2023-02-26T04:27:15;0.89;78.38
65058;HTU21D;51644;51.068;5.860;2023-02-26T04:28:15;0.86;78.43
65058;HTU21D;51644;51.068;5.860;2023-02-26T04:29:14;0.83;78.54
65058;HTU21D;51644;51.068;5.860;2023-02-26T04:30:13;0.87;78.53
65058;HTU21D;51644;51.068;5.860;2023-02-26T04:31:11;0.86;78.38
65058;HTU21D;51644;51.068;5.860;2023-02-26T04:32:11;0.84;78.48
65058;HTU21D;51644;51.068;5.860;2023-02-26T04:33:10;0.86;78.50
65058;HTU21D;51644;51.068;5.860;2023-02-26T04:34:10;0.83;78.58
65058;HTU21D;51644;51.068;5.860;2023-02-26T04:35:10;0.82;78.51
65058;HTU21D;51644;51.068;5.860;2023-02-26T04:36:09;0.83;78.52
65058;HTU21D;51644;51.068;5.860;2023-02-26T04:37:08;0.83;78.54
65058;HTU21D;51644;51.068;5.860;2023-02-26T04:38:07;0.82;78.63
65058;HTU21D;51644;51.068;5.860;2023-02-26T04:39:05;0.78;78.68
65058;HTU21D;51644;51.068;5.860;2023-02-26T04:40:05;0.78;78.78
65058;HTU21D;51644;51.068;5.860;2023-02-26T04:41:04;0.76;78.87
65058;HTU21D;51644;51.068;5.860;2023-02-26T04:42:03;0.78;78.85
65058;HTU21D;51644;51.068;5.860;2023-02-26T04:43:02;0.77;78.84
65058;HTU21D;51644;51.068;5.860;2023-02-26T04:44:05;0.75;78.92
65058;HTU21D;51644;51.068;5.860;2023-02-26T04:45:06;0.76;78.97
65058;HTU21D;51644;51.068;5.860;2023-02-26T04:46:06;0.77;78.80
65058;HTU21D;51644;51.068;5.860;2023-02-26T04:47:07;0.75;78.89
65058;HTU21D;51644;51.068;5.860;2023-02-26T04:48:09;0.77;78.92
65058;HTU21D;51644;51.068;5.860;2023-02-26T04:49:08;0.75;78.88
65058;HTU21D;51644;51.068;5.860;2023-02-26T04:50:12;0.73;79.04
65058;HTU21D;51644;51.068;5.860;2023-02-26T04:51:11;0.71;79.04
65058;HTU21D;51644;51.068;5.860;2023-02-26T04:52:10;0.71;79.03
65058;HTU21D;51644;51.068;5.860;2023-02-26T04:53:14;0.69;79.08
65058;HTU21D;51644;51.068;5.860;2023-02-26T04:54:12;0.69;79.09
65058;HTU21D;51644;51.068;5.860;2023-02-26T04:55:11;0.69;79.06
65058;HTU21D;51644;51.068;5.860;2023-02-26T04:56:10;0.67;79.05
65058;HTU21D;51644;51.068;5.860;2023-02-26T04:57:09;0.69;79.01
65058;HTU21D;51644;51.068;5.860;2023-02-26T04:58:08;0.66;78.97
65058;HTU21D;51644;51.068;5.860;2023-02-26T04:59:08;0.65;79.05
65058;HTU21D;51644;51.068;5.860;2023-02-26T05:00:07;0.65;79.09
65058;HTU21D;51644;51.068;5.860;2023-02-26T05:01:09;0.68;78.98
65058;HTU21D;51644;51.068;5.860;2023-02-26T05:02:08;0.66;78.95
65058;HTU21D;51644;51.068;5.860;2023-02-26T05:03:11;0.64;78.93
65058;HTU21D;51644;51.068;5.860;2023-02-26T05:04:10;0.66;78.85
65058;HTU21D;51644;51.068;5.860;2023-02-26T05:05:11;0.62;78.89
65058;HTU21D;51644;51.068;5.860;2023-02-26T05:06:09;0.65;78.85
65058;HTU21D;51644;51.068;5.860;2023-02-26T05:07:08;0.62;78.92
65058;HTU21D;51644;51.068;5.860;2023-02-26T05:08:07;0.62;78.90
65058;HTU21D;51644;51.068;5.860;2023-02-26T05:09:06;0.62;78.75
65058;HTU21D;51644;51.068;5.860;2023-02-26T05:10:06;0.62;78.82
65058;HTU21D;51644;51.068;5.860;2023-02-26T05:11:05;0.64;78.72
65058;HTU21D;51644;51.068;5.860;2023-02-26T05:12:04;0.62;78.75
65058;HTU21D;51644;51.068;5.860;2023-02-26T05:13:06;0.59;78.85
65058;HTU21D;51644;51.068;5.860;2023-02-26T05:14:07;0.58;78.87
65058;HTU21D;51644;51.068;5.860;2023-02-26T05:15:06;0.57;78.86
65058;HTU21D;51644;51.068;5.860;2023-02-26T05:16:06;0.57;78.90
65058;HTU21D;51644;51.068;5.860;2023-02-26T05:17:05;0.55;78.87
65058;HTU21D;51644;51.068;5.860;2023-02-26T05:18:04;0.55;78.85
65058;HTU21D;51644;51.068;5.860;2023-02-26T05:19:02;0.55;78.82
65058;HTU21D;51644;51.068;5.860;2023-02-26T05:20:01;0.53;78.74
65058;HTU21D;51644;51.068;5.860;2023-02-26T05:21:03;0.57;78.77
65058;HTU21D;51644;51.068;5.860;2023-02-26T05:22:01;0.53;78.72
65058;HTU21D;51644;51.068;5.860;2023-02-26T05:23:01;0.53;78.69
65058;HTU21D;51644;51.068;5.860;2023-02-26T05:24:00;0.53;78.63
65058;HTU21D;51644;51.068;5.860;2023-02-26T05:24:59;0.52;78.64
65058;HTU21D;51644;51.068;5.860;2023-02-26T05:25:58;0.51;78.68
65058;HTU21D;51644;51.068;5.860;2023-02-26T05:26:56;0.53;78.54
65058;HTU21D;51644;51.068;5.860;2023-02-26T05:27:55;0.52;78.51
65058;HTU21D;51644;51.068;5.860;2023-02-26T05:28:55;0.53;78.30
65058;HTU21D;51644;51.068;5.860;2023-02-26T05:29:53;0.54;78.34
65058;HTU21D;51644;51.068;5.860;2023-02-26T05:30:56;0.51;78.30
65058;HTU21D;51644;51.068;5.860;2023-02-26T05:31:55;0.49;78.33
65058;HTU21D;51644;51.068;5.860;2023-02-26T05:32:54;0.48;78.38
65058;HTU21D;51644;51.068;5.860;2023-02-26T05:33:52;0.48;78.37
65058;HTU21D;51644;51.068;5.860;2023-02-26T05:34:54;0.48;78.28
65058;HTU21D;51644;51.068;5.860;2023-02-26T05:35:53;0.49;78.23
65058;HTU21D;51644;51.068;5.860;2023-02-26T05:36:51;0.49;78.14
65058;HTU21D;51644;51.068;5.860;2023-02-26T05:38:06;0.45;78.17
65058;HTU21D;51644;51.068;5.860;2023-02-26T05:39:04;0.47;78.07
65058;HTU21D;51644;51.068;5.860;2023-02-26T05:40:05;0.50;77.89
65058;HTU21D;51644;51.068;5.860;2023-02-26T05:41:04;0.46;77.97
65058;HTU21D;51644;51.068;5.860;2023-02-26T05:42:02;0.46;78.00
65058;HTU21D;51644;51.068;5.860;2023-02-26T05:43:01;0.45;78.03
65058;HTU21D;51644;51.068;5.860;2023-02-26T05:44:00;0.43;78.01
65058;HTU21D;51644;51.068;5.860;2023-02-26T05:44:59;0.45;77.95
65058;HTU21D;51644;51.068;5.860;2023-02-26T05:45:58;0.44;77.88
65058;HTU21D;51644;51.068;5.860;2023-02-26T05:46:57;0.42;77.83
65058;HTU21D;51644;51.068;5.860;2023-02-26T05:47:55;0.42;77.92
65058;HTU21D;51644;51.068;5.860;2023-02-26T05:48:54;0.40;77.82
65058;HTU21D;51644;51.068;5.860;2023-02-26T05:49:55;0.38;77.89
65058;HTU21D;51644;51.068;5.860;2023-02-26T05:50:54;0.38;77.92
65058;HTU21D;51644;51.068;5.860;2023-02-26T05:51:52;0.40;77.80
65058;HTU21D;51644;51.068;5.860;2023-02-26T05:52:51;0.40;77.68
65058;HTU21D;51644;51.068;5.860;2023-02-26T05:54:08;0.42;77.43
65058;HTU21D;51644;51.068;5.860;2023-02-26T05:55:08;0.39;77.38
65058;HTU21D;51644;51.068;5.860;2023-02-26T05:56:09;0.38;77.39
65058;HTU21D;51644;51.068;5.860;2023-02-26T05:57:08;0.36;77.37
65058;HTU21D;51644;51.068;5.860;2023-02-26T05:58:06;0.39;77.22
65058;HTU21D;51644;51.068;5.860;2023-02-26T05:59:08;0.38;77.19
65058;HTU21D;51644;51.068;5.860;2023-02-26T06:00:08;0.36;77.23
65058;HTU21D;51644;51.068;5.860;2023-02-26T06:01:16;0.36;77.12
65058;HTU21D;51644;51.068;5.860;2023-02-26T06:02:14;0.36;77.09
65058;HTU21D;51644;51.068;5.860;2023-02-26T06:03:13;0.33;77.13
65058;HTU21D;51644;51.068;5.860;2023-02-26T06:04:14;0.35;76.98
65058;HTU21D;51644;51.068;5.860;2023-02-26T06:05:13;0.35;76.99
65058;HTU21D;51644;51.068;5.860;2023-02-26T06:06:13;0.34;77.08
65058;HTU21D;51644;51.068;5.860;2023-02-26T06:07:13;0.33;77.00
65058;HTU21D;51644;51.068;5.860;2023-02-26T06:08:12;0.33;77.00
65058;HTU21D;51644;51.068;5.860;2023-02-26T06:09:12;0.31;77.02
65058;HTU21D;51644;51.068;5.860;2023-02-26T06:10:11;0.32;76.98
65058;HTU21D;51644;51.068;5.860;2023-02-26T06:11:10;0.36;76.79
65058;HTU21D;51644;51.068;5.860;2023-02-26T06:12:10;0.30;76.95
65058;HTU21D;51644;51.068;5.860;2023-02-26T06:13:14;0.30;76.92
65058;HTU21D;51644;51.068;5.860;2023-02-26T06:14:15;0.32;76.87
65058;HTU21D;51644;51.068;5.860;2023-02-26T06:15:14;0.36;76.65
65058;HTU21D;51644;51.068;5.860;2023-02-26T06:16:12;0.33;76.73
65058;HTU21D;51644;51.068;5.860;2023-02-26T06:17:11;0.32;76.76
65058;HTU21D;51644;51.068;5.860;2023-02-26T06:18:10;0.32;76.71
65058;HTU21D;51644;51.068;5.860;2023-02-26T06:19:08;0.28;76.82
65058;HTU21D;51644;51.068;5.860;2023-02-26T06:20:08;0.31;76.72
65058;HTU21D;51644;51.068;5.860;2023-02-26T06:21:07;0.30;76.68
65058;HTU21D;51644;51.068;5.860;2023-02-26T06:22:09;0.30;76.66
65058;HTU21D;51644;51.068;5.860;2023-02-26T06:23:08;0.31;76.76
65058;HTU21D;51644;51.068;5.860;2023-02-26T06:24:07;0.32;76.66
65058;HTU21D;51644;51.068;5.860;2023-02-26T06:25:06;0.31;76.60
65058;HTU21D;51644;51.068;5.860;2023-02-26T06:26:05;0.35;76.36
65058;HTU21D;51644;51.068;5.860;2023-02-26T06:27:04;0.33;76.39
65058;HTU21D;51644;51.068;5.860;2023-02-26T06:28:03;0.34;76.31
65058;HTU21D;51644;51.068;5.860;2023-02-26T06:29:16;0.34;76.25
65058;HTU21D;51644;51.068;5.860;2023-02-26T06:30:16;0.32;76.24
65058;HTU21D;51644;51.068;5.860;2023-02-26T06:31:15;0.30;76.30
65058;HTU21D;51644;51.068;5.860;2023-02-26T06:32:14;0.29;76.44
65058;HTU21D;51644;51.068;5.860;2023-02-26T06:33:24;0.29;76.43
65058;HTU21D;51644;51.068;5.860;2023-02-26T06:35:42;0.30;76.30
65058;HTU21D;51644;51.068;5.860;2023-02-26T06:36:40;0.27;76.42
65058;HTU21D;51644;51.068;5.860;2023-02-26T06:37:39;0.27;76.49
65058;HTU21D;51644;51.068;5.860;2023-02-26T06:38:40;0.28;76.49
65058;HTU21D;51644;51.068;5.860;2023-02-26T06:39:39;0.27;76.49
65058;HTU21D;51644;51.068;5.860;2023-02-26T06:40:38;0.29;76.41
65058;HTU21D;51644;51.068;5.860;2023-02-26T06:41:37;0.30;76.33
65058;HTU21D;51644;51.068;5.860;2023-02-26T06:42:36;0.29;76.36
65058;HTU21D;51644;51.068;5.860;2023-02-26T06:43:34;0.31;76.27
65058;HTU21D;51644;51.068;5.860;2023-02-26T06:44:33;0.33;76.24
65058;HTU21D;51644;51.068;5.860;2023-02-26T06:45:31;0.32;76.13
65058;HTU21D;51644;51.068;5.860;2023-02-26T06:46:30;0.30;76.20
65058;HTU21D;51644;51.068;5.860;2023-02-26T06:47:29;0.30;76.15
65058;HTU21D;51644;51.068;5.860;2023-02-26T06:48:27;0.29;76.27
65058;HTU21D;51644;51.068;5.860;2023-02-26T06:49:26;0.33;76.13
65058;HTU21D;51644;51.068;5.860;2023-02-26T06:50:25;0.31;76.14
65058;HTU21D;51644;51.068;5.860;2023-02-26T06:51:23;0.33;76.11
65058;HTU21D;51644;51.068;5.860;2023-02-26T06:52:22;0.31;76.10
65058;HTU21D;51644;51.068;5.860;2023-02-26T06:53:21;0.32;76.08
65058;HTU21D;51644;51.068;5.860;2023-02-26T06:54:23;0.32;76.08
65058;HTU21D;51644;51.068;5.860;2023-02-26T06:55:22;0.32;76.07
65058;HTU21D;51644;51.068;5.860;2023-02-26T06:56:24;0.34;76.12
65058;HTU21D;51644;51.068;5.860;2023-02-26T06:57:22;0.34;76.00
65058;HTU21D;51644;51.068;5.860;2023-02-26T06:58:21;0.35;76.03
65058;HTU21D;51644;51.068;5.860;2023-02-26T06:59:37;0.37;75.92
65058;HTU21D;51644;51.068;5.860;2023-02-26T07:00:36;0.39;75.83
65058;HTU21D;51644;51.068;5.860;2023-02-26T07:01:38;0.39;75.76
65058;HTU21D;51644;51.068;5.860;2023-02-26T07:02:37;0.38;75.82
65058;HTU21D;51644;51.068;5.860;2023-02-26T07:03:35;0.43;75.58
65058;HTU21D;51644;51.068;5.860;2023-02-26T07:04:34;0.44;75.52
65058;HTU21D;51644;51.068;5.860;2023-02-26T07:05:32;0.42;75.60
65058;HTU21D;51644;51.068;5.860;2023-02-26T07:06:31;0.44;75.53
65058;HTU21D;51644;51.068;5.860;2023-02-26T07:07:30;0.44;75.56
65058;HTU21D;51644;51.068;5.860;2023-02-26T07:08:28;0.43;75.60
65058;HTU21D;51644;51.068;5.860;2023-02-26T07:09:27;0.46;75.57
65058;HTU21D;51644;51.068;5.860;2023-02-26T07:10:26;0.47;75.53
65058;HTU21D;51644;51.068;5.860;2023-02-26T07:11:25;0.46;75.50
65058;HTU21D;51644;51.068;5.860;2023-02-26T07:12:23;0.48;75.43
65058;HTU21D;51644;51.068;5.860;2023-02-26T07:13:22;0.50;75.46
65058;HTU21D;51644;51.068;5.860;2023-02-26T07:14:21;0.47;75.56
65058;HTU21D;51644;51.068;5.860;2023-02-26T07:15:19;0.48;75.58
65058;HTU21D;51644;51.068;5.860;2023-02-26T07:16:18;0.51;75.54
65058;HTU21D;51644;51.068;5.860;2023-02-26T07:17:16;0.53;75.47
65058;HTU21D;51644;51.068;5.860;2023-02-26T07:18:18;0.54;75.43
65058;HTU21D;51644;51.068;5.860;2023-02-26T07:19:17;0.55;75.42
65058;HTU21D;51644;51.068;5.860;2023-02-26T07:20:16;0.57;75.33
65058;HTU21D;51644;51.068;5.860;2023-02-26T07:21:15;0.59;75.14
65058;HTU21D;51644;51.068;5.860;2023-02-26T07:22:14;0.60;75.20
65058;HTU21D;51644;51.068;5.860;2023-02-26T07:23:13;0.60;75.06